Orange, Texas
Current Conditions -  °F | °C
As of 9:55 AM on Friday 28 Nov 2014 (Local Time) from KORG Reporting Station
Clear Clear  
Wind Chill: 56°   Ceiling: Unl
Heat Index: 56°   Visibility: 10mi
Dew Point: 48°   Wind: 7mph
Humidity: 75%   Direction: 110°ESE
Pressure: 30.39"   Gusts: NA
Location:  30.09°N, 93.74°W
Report Text: KORG 281555Z AUTO 11006KT 10SM CLR 13/09 A3039 RMK AO2 T01310088
Loading
Personal Weather Stations






























Interactive Weather Map New forecast layout! Learn more

10-Day Weather Forecast

Advertisements
Track Severe Weather on mobile